sensor_id;sensor_type;location;lat;lon;timestamp;P1;durP1;ratioP1;P2;durP2;ratioP2
24259;SDS011;12384;48.112;18.418;2023-02-01T00:01:25;11.03;;;10.13;;
24259;SDS011;12384;48.112;18.418;2023-02-01T00:03:53;9.30;;;8.70;;
24259;SDS011;12384;48.112;18.418;2023-02-01T00:06:22;10.20;;;9.30;;
24259;SDS011;12384;48.112;18.418;2023-02-01T00:08:51;10.43;;;9.53;;
24259;SDS011;12384;48.112;18.418;2023-02-01T00:11:21;10.50;;;9.60;;
24259;SDS011;12384;48.112;18.418;2023-02-01T00:13:49;10.63;;;9.50;;
24259;SDS011;12384;48.112;18.418;2023-02-01T00:16:20;10.23;;;9.50;;
24259;SDS011;12384;48.112;18.418;2023-02-01T00:18:50;9.97;;;9.10;;
24259;SDS011;12384;48.112;18.418;2023-02-01T00:21:23;9.97;;;9.20;;
24259;SDS011;12384;48.112;18.418;2023-02-01T00:23:51;10.20;;;9.27;;
24259;SDS011;12384;48.112;18.418;2023-02-01T00:26:25;9.83;;;9.07;;
24259;SDS011;12384;48.112;18.418;2023-02-01T00:29:01;10.03;;;9.23;;
24259;SDS011;12384;48.112;18.418;2023-02-01T00:31:33;10.47;;;9.40;;
24259;SDS011;12384;48.112;18.418;2023-02-01T00:34:01;10.37;;;9.57;;
24259;SDS011;12384;48.112;18.418;2023-02-01T00:36:30;10.77;;;9.93;;
24259;SDS011;12384;48.112;18.418;2023-02-01T00:38:59;10.70;;;9.60;;
24259;SDS011;12384;48.112;18.418;2023-02-01T00:41:27;11.00;;;10.20;;
24259;SDS011;12384;48.112;18.418;2023-02-01T00:43:56;10.90;;;10.00;;
24259;SDS011;12384;48.112;18.418;2023-02-01T00:46:25;10.67;;;9.87;;
24259;SDS011;12384;48.112;18.418;2023-02-01T00:48:56;11.40;;;10.43;;
24259;SDS011;12384;48.112;18.418;2023-02-01T00:51:26;10.97;;;9.87;;
24259;SDS011;12384;48.112;18.418;2023-02-01T00:53:56;10.57;;;9.77;;
24259;SDS011;12384;48.112;18.418;2023-02-01T00:56:24;10.93;;;10.03;;
24259;SDS011;12384;48.112;18.418;2023-02-01T00:58:55;9.63;;;8.93;;
24259;SDS011;12384;48.112;18.418;2023-02-01T01:01:24;10.47;;;9.57;;
24259;SDS011;12384;48.112;18.418;2023-02-01T01:03:56;11.07;;;10.17;;
24259;SDS011;12384;48.112;18.418;2023-02-01T01:06:27;11.20;;;10.03;;
24259;SDS011;12384;48.112;18.418;2023-02-01T01:08:57;11.13;;;10.33;;
24259;SDS011;12384;48.112;18.418;2023-02-01T01:11:28;10.53;;;9.63;;
24259;SDS011;12384;48.112;18.418;2023-02-01T01:13:58;11.30;;;10.50;;
24259;SDS011;12384;48.112;18.418;2023-02-01T01:16:28;11.20;;;10.27;;
24259;SDS011;12384;48.112;18.418;2023-02-01T01:19:00;10.93;;;10.13;;
24259;SDS011;12384;48.112;18.418;2023-02-01T01:21:29;10.93;;;9.93;;
24259;SDS011;12384;48.112;18.418;2023-02-01T01:23:58;10.97;;;10.17;;
24259;SDS011;12384;48.112;18.418;2023-02-01T01:26:27;11.13;;;10.33;;
24259;SDS011;12384;48.112;18.418;2023-02-01T01:28:57;12.03;;;10.93;;
24259;SDS011;12384;48.112;18.418;2023-02-01T01:31:26;11.73;;;10.63;;
24259;SDS011;12384;48.112;18.418;2023-02-01T01:33:56;11.77;;;10.73;;
24259;SDS011;12384;48.112;18.418;2023-02-01T01:36:28;10.67;;;9.77;;
24259;SDS011;12384;48.112;18.418;2023-02-01T01:38:57;11.30;;;10.50;;
24259;SDS011;12384;48.112;18.418;2023-02-01T01:41:28;10.90;;;10.00;;
24259;SDS011;12384;48.112;18.418;2023-02-01T01:44:06;10.97;;;10.17;;
24259;SDS011;12384;48.112;18.418;2023-02-01T01:46:54;10.50;;;9.70;;
24259;SDS011;12384;48.112;18.418;2023-02-01T01:49:24;10.40;;;9.50;;
24259;SDS011;12384;48.112;18.418;2023-02-01T01:51:55;10.70;;;9.97;;
24259;SDS011;12384;48.112;18.418;2023-02-01T01:54:27;9.63;;;8.93;;
24259;SDS011;12384;48.112;18.418;2023-02-01T01:57:00;10.30;;;9.53;;
24259;SDS011;12384;48.112;18.418;2023-02-01T01:59:32;10.90;;;9.90;;
24259;SDS011;12384;48.112;18.418;2023-02-01T02:02:03;11.37;;;10.37;;
24259;SDS011;12384;48.112;18.418;2023-02-01T02:04:32;10.20;;;9.50;;
24259;SDS011;12384;48.112;18.418;2023-02-01T02:07:04;10.57;;;9.77;;
24259;SDS011;12384;48.112;18.418;2023-02-01T02:09:35;11.20;;;10.30;;
24259;SDS011;12384;48.112;18.418;2023-02-01T02:12:08;11.03;;;10.13;;
24259;SDS011;12384;48.112;18.418;2023-02-01T02:14:37;10.33;;;9.63;;
24259;SDS011;12384;48.112;18.418;2023-02-01T02:17:21;10.43;;;9.73;;
24259;SDS011;12384;48.112;18.418;2023-02-01T02:20:22;10.40;;;9.70;;
24259;SDS011;12384;48.112;18.418;2023-02-01T02:32:26;10.30;;;9.60;;
24259;SDS011;12384;48.112;18.418;2023-02-01T02:35:18;9.77;;;9.13;;
24259;SDS011;12384;48.112;18.418;2023-02-01T02:37:55;9.70;;;9.00;;
24259;SDS011;12384;48.112;18.418;2023-02-01T02:40:34;9.33;;;8.63;;
24259;SDS011;12384;48.112;18.418;2023-02-01T02:43:12;9.73;;;9.13;;
24259;SDS011;12384;48.112;18.418;2023-02-01T02:46:06;10.50;;;9.50;;
24259;SDS011;12384;48.112;18.418;2023-02-01T02:49:00;9.93;;;9.23;;
24259;SDS011;12384;48.112;18.418;2023-02-01T02:51:34;10.47;;;9.73;;
24259;SDS011;12384;48.112;18.418;2023-02-01T02:54:26;9.67;;;9.07;;
24259;SDS011;12384;48.112;18.418;2023-02-01T02:57:18;10.50;;;9.70;;
24259;SDS011;12384;48.112;18.418;2023-02-01T03:00:08;9.77;;;9.07;;
24259;SDS011;12384;48.112;18.418;2023-02-01T03:02:57;9.83;;;9.13;;
24259;SDS011;12384;48.112;18.418;2023-02-01T03:05:44;9.47;;;8.97;;
24259;SDS011;12384;48.112;18.418;2023-02-01T03:08:16;9.77;;;9.17;;
24259;SDS011;12384;48.112;18.418;2023-02-01T03:10:51;9.87;;;9.27;;
24259;SDS011;12384;48.112;18.418;2023-02-01T03:13:26;9.53;;;8.93;;
24259;SDS011;12384;48.112;18.418;2023-02-01T03:15:59;9.50;;;8.90;;
24259;SDS011;12384;48.112;18.418;2023-02-01T03:18:34;9.87;;;9.17;;
24259;SDS011;12384;48.112;18.418;2023-02-01T03:21:09;9.37;;;8.77;;
24259;SDS011;12384;48.112;18.418;2023-02-01T03:23:43;9.33;;;8.73;;
24259;SDS011;12384;48.112;18.418;2023-02-01T03:26:14;9.47;;;8.87;;
24259;SDS011;12384;48.112;18.418;2023-02-01T03:28:48;9.57;;;8.97;;
24259;SDS011;12384;48.112;18.418;2023-02-01T03:31:21;9.87;;;9.13;;
24259;SDS011;12384;48.112;18.418;2023-02-01T03:33:50;9.93;;;9.33;;
24259;SDS011;12384;48.112;18.418;2023-02-01T03:36:21;9.80;;;9.20;;
24259;SDS011;12384;48.112;18.418;2023-02-01T03:38:58;10.20;;;9.50;;
24259;SDS011;12384;48.112;18.418;2023-02-01T03:41:34;9.37;;;8.80;;
24259;SDS011;12384;48.112;18.418;2023-02-01T03:44:08;9.53;;;8.93;;
24259;SDS011;12384;48.112;18.418;2023-02-01T03:46:42;8.60;;;8.10;;
24259;SDS011;12384;48.112;18.418;2023-02-01T03:49:18;9.77;;;9.17;;
24259;SDS011;12384;48.112;18.418;2023-02-01T03:51:50;9.33;;;8.73;;
24259;SDS011;12384;48.112;18.418;2023-02-01T03:54:21;9.17;;;8.57;;
24259;SDS011;12384;48.112;18.418;2023-02-01T03:56:51;9.30;;;8.70;;
24259;SDS011;12384;48.112;18.418;2023-02-01T03:59:23;9.13;;;8.53;;
24259;SDS011;12384;48.112;18.418;2023-02-01T04:01:52;9.70;;;9.10;;
24259;SDS011;12384;48.112;18.418;2023-02-01T04:04:20;9.33;;;8.80;;
24259;SDS011;12384;48.112;18.418;2023-02-01T04:06:52;9.40;;;8.80;;
24259;SDS011;12384;48.112;18.418;2023-02-01T04:09:22;9.60;;;8.90;;
24259;SDS011;12384;48.112;18.418;2023-02-01T04:11:50;9.40;;;8.90;;
24259;SDS011;12384;48.112;18.418;2023-02-01T04:14:18;9.57;;;9.07;;
24259;SDS011;12384;48.112;18.418;2023-02-01T04:16:47;9.47;;;8.97;;
24259;SDS011;12384;48.112;18.418;2023-02-01T04:19:15;9.50;;;9.00;;
24259;SDS011;12384;48.112;18.418;2023-02-01T04:21:44;9.23;;;8.63;;
24259;SDS011;12384;48.112;18.418;2023-02-01T04:24:12;9.13;;;8.63;;
24259;SDS011;12384;48.112;18.418;2023-02-01T04:26:42;9.20;;;8.60;;
24259;SDS011;12384;48.112;18.418;2023-02-01T04:29:10;8.80;;;8.20;;
24259;SDS011;12384;48.112;18.418;2023-02-01T04:31:39;9.20;;;8.50;;
24259;SDS011;12384;48.112;18.418;2023-02-01T04:34:08;8.83;;;8.33;;
24259;SDS011;12384;48.112;18.418;2023-02-01T04:36:36;8.87;;;8.37;;
24259;SDS011;12384;48.112;18.418;2023-02-01T04:39:05;8.87;;;8.27;;
24259;SDS011;12384;48.112;18.418;2023-02-01T04:41:33;8.87;;;8.37;;
24259;SDS011;12384;48.112;18.418;2023-02-01T04:44:03;9.03;;;8.53;;
24259;SDS011;12384;48.112;18.418;2023-02-01T04:46:31;8.77;;;8.27;;
24259;SDS011;12384;48.112;18.418;2023-02-01T04:49:00;8.87;;;8.37;;
24259;SDS011;12384;48.112;18.418;2023-02-01T04:51:28;8.33;;;7.83;;
24259;SDS011;12384;48.112;18.418;2023-02-01T04:53:57;9.40;;;8.80;;
24259;SDS011;12384;48.112;18.418;2023-02-01T04:56:25;9.60;;;9.00;;
24259;SDS011;12384;48.112;18.418;2023-02-01T04:58:54;9.37;;;8.87;;
24259;SDS011;12384;48.112;18.418;2023-02-01T05:01:23;9.00;;;8.50;;
24259;SDS011;12384;48.112;18.418;2023-02-01T05:03:52;9.43;;;8.93;;
24259;SDS011;12384;48.112;18.418;2023-02-01T05:06:20;8.97;;;8.40;;
24259;SDS011;12384;48.112;18.418;2023-02-01T05:08:49;8.80;;;8.30;;
24259;SDS011;12384;48.112;18.418;2023-02-01T05:11:17;9.17;;;8.67;;
24259;SDS011;12384;48.112;18.418;2023-02-01T05:14:03;9.00;;;8.50;;
24259;SDS011;12384;48.112;18.418;2023-02-01T05:16:33;9.77;;;9.17;;
24259;SDS011;12384;48.112;18.418;2023-02-01T05:19:01;9.17;;;8.67;;
24259;SDS011;12384;48.112;18.418;2023-02-01T05:21:30;9.23;;;8.73;;
24259;SDS011;12384;48.112;18.418;2023-02-01T05:23:58;9.43;;;8.93;;
24259;SDS011;12384;48.112;18.418;2023-02-01T05:26:39;9.80;;;9.20;;
24259;SDS011;12384;48.112;18.418;2023-02-01T05:29:09;9.67;;;9.07;;
24259;SDS011;12384;48.112;18.418;2023-02-01T05:31:39;9.77;;;9.20;;
24259;SDS011;12384;48.112;18.418;2023-02-01T05:34:08;9.90;;;9.33;;
24259;SDS011;12384;48.112;18.418;2023-02-01T05:36:36;9.70;;;9.07;;
24259;SDS011;12384;48.112;18.418;2023-02-01T05:39:05;8.87;;;8.37;;
24259;SDS011;12384;48.112;18.418;2023-02-01T05:41:33;9.13;;;8.60;;
24259;SDS011;12384;48.112;18.418;2023-02-01T05:44:01;9.47;;;8.87;;
24259;SDS011;12384;48.112;18.418;2023-02-01T05:46:30;9.03;;;8.53;;
24259;SDS011;12384;48.112;18.418;2023-02-01T05:49:00;9.57;;;9.00;;
24259;SDS011;12384;48.112;18.418;2023-02-01T05:51:28;9.13;;;8.43;;
24259;SDS011;12384;48.112;18.418;2023-02-01T05:53:57;9.43;;;8.93;;
24259;SDS011;12384;48.112;18.418;2023-02-01T05:56:25;8.93;;;8.43;;
24259;SDS011;12384;48.112;18.418;2023-02-01T05:58:54;9.27;;;8.77;;
24259;SDS011;12384;48.112;18.418;2023-02-01T06:01:22;9.57;;;9.07;;
24259;SDS011;12384;48.112;18.418;2023-02-01T06:03:50;9.30;;;8.80;;
24259;SDS011;12384;48.112;18.418;2023-02-01T06:06:20;9.43;;;8.80;;
24259;SDS011;12384;48.112;18.418;2023-02-01T06:08:48;9.47;;;8.97;;
24259;SDS011;12384;48.112;18.418;2023-02-01T06:11:17;9.57;;;9.07;;
24259;SDS011;12384;48.112;18.418;2023-02-01T06:13:57;9.77;;;9.17;;
24259;SDS011;12384;48.112;18.418;2023-02-01T06:16:26;9.77;;;9.17;;
24259;SDS011;12384;48.112;18.418;2023-02-01T06:18:54;10.17;;;9.57;;
24259;SDS011;12384;48.112;18.418;2023-02-01T06:21:24;9.47;;;8.77;;
24259;SDS011;12384;48.112;18.418;2023-02-01T06:23:53;9.93;;;9.23;;
24259;SDS011;12384;48.112;18.418;2023-02-01T06:26:24;8.70;;;8.20;;
24259;SDS011;12384;48.112;18.418;2023-02-01T06:28:55;9.37;;;8.80;;
24259;SDS011;12384;48.112;18.418;2023-02-01T06:31:24;9.60;;;9.00;;
24259;SDS011;12384;48.112;18.418;2023-02-01T06:33:53;8.77;;;8.27;;
24259;SDS011;12384;48.112;18.418;2023-02-01T06:36:21;8.67;;;8.17;;
24259;SDS011;12384;48.112;18.418;2023-02-01T06:38:51;9.30;;;8.77;;
24259;SDS011;12384;48.112;18.418;2023-02-01T06:41:19;9.00;;;8.50;;
24259;SDS011;12384;48.112;18.418;2023-02-01T06:43:48;8.47;;;7.97;;
24259;SDS011;12384;48.112;18.418;2023-02-01T06:46:16;8.90;;;8.30;;
24259;SDS011;12384;48.112;18.418;2023-02-01T06:48:45;9.40;;;8.80;;
24259;SDS011;12384;48.112;18.418;2023-02-01T06:51:20;9.57;;;9.00;;
24259;SDS011;12384;48.112;18.418;2023-02-01T06:53:51;8.07;;;7.53;;
24259;SDS011;12384;48.112;18.418;2023-02-01T06:56:20;8.90;;;8.30;;
24259;SDS011;12384;48.112;18.418;2023-02-01T06:58:48;8.70;;;8.20;;
24259;SDS011;12384;48.112;18.418;2023-02-01T07:01:17;8.53;;;7.93;;
24259;SDS011;12384;48.112;18.418;2023-02-01T07:03:46;9.10;;;8.30;;
24259;SDS011;12384;48.112;18.418;2023-02-01T07:06:17;8.57;;;8.07;;
24259;SDS011;12384;48.112;18.418;2023-02-01T07:08:47;9.00;;;8.40;;
24259;SDS011;12384;48.112;18.418;2023-02-01T07:11:17;7.80;;;7.30;;
24259;SDS011;12384;48.112;18.418;2023-02-01T07:13:46;7.57;;;7.07;;
24259;SDS011;12384;48.112;18.418;2023-02-01T07:16:16;8.50;;;7.90;;
24259;SDS011;12384;48.112;18.418;2023-02-01T07:18:46;7.90;;;7.30;;
24259;SDS011;12384;48.112;18.418;2023-02-01T07:21:15;8.10;;;7.60;;
24259;SDS011;12384;48.112;18.418;2023-02-01T07:23:43;8.50;;;7.90;;
24259;SDS011;12384;48.112;18.418;2023-02-01T07:26:12;9.70;;;9.00;;
24259;SDS011;12384;48.112;18.418;2023-02-01T07:28:44;9.30;;;8.70;;
24259;SDS011;12384;48.112;18.418;2023-02-01T07:31:13;9.13;;;8.50;;
24259;SDS011;12384;48.112;18.418;2023-02-01T07:33:45;8.37;;;7.87;;
24259;SDS011;12384;48.112;18.418;2023-02-01T07:36:14;8.70;;;7.93;;
24259;SDS011;12384;48.112;18.418;2023-02-01T07:38:44;8.20;;;7.70;;
24259;SDS011;12384;48.112;18.418;2023-02-01T07:41:14;7.27;;;6.67;;
24259;SDS011;12384;48.112;18.418;2023-02-01T07:43:45;7.70;;;7.20;;
24259;SDS011;12384;48.112;18.418;2023-02-01T07:46:13;7.13;;;6.70;;
24259;SDS011;12384;48.112;18.418;2023-02-01T07:48:43;8.17;;;7.57;;
24259;SDS011;12384;48.112;18.418;2023-02-01T07:51:12;8.00;;;7.40;;
24259;SDS011;12384;48.112;18.418;2023-02-01T07:53:41;7.60;;;7.17;;
24259;SDS011;12384;48.112;18.418;2023-02-01T07:56:13;8.10;;;7.57;;
24259;SDS011;12384;48.112;18.418;2023-02-01T07:58:46;7.87;;;7.37;;
24259;SDS011;12384;48.112;18.418;2023-02-01T08:01:15;8.80;;;7.87;;
24259;SDS011;12384;48.112;18.418;2023-02-01T08:03:47;7.93;;;7.43;;
24259;SDS011;12384;48.112;18.418;2023-02-01T08:06:16;8.20;;;7.70;;
24259;SDS011;12384;48.112;18.418;2023-02-01T08:08:46;7.37;;;6.97;;
24259;SDS011;12384;48.112;18.418;2023-02-01T08:11:15;7.90;;;7.40;;
24259;SDS011;12384;48.112;18.418;2023-02-01T08:13:46;7.93;;;7.43;;
24259;SDS011;12384;48.112;18.418;2023-02-01T08:16:15;7.70;;;7.27;;
24259;SDS011;12384;48.112;18.418;2023-02-01T08:18:45;7.60;;;7.10;;
24259;SDS011;12384;48.112;18.418;2023-02-01T08:21:14;8.27;;;7.73;;
24259;SDS011;12384;48.112;18.418;2023-02-01T08:23:44;7.97;;;7.50;;
24259;SDS011;12384;48.112;18.418;2023-02-01T08:26:14;8.50;;;8.00;;
24259;SDS011;12384;48.112;18.418;2023-02-01T08:28:46;8.57;;;8.07;;
24259;SDS011;12384;48.112;18.418;2023-02-01T08:31:17;8.43;;;7.93;;
24259;SDS011;12384;48.112;18.418;2023-02-01T08:33:48;8.87;;;8.37;;
24259;SDS011;12384;48.112;18.418;2023-02-01T08:36:17;9.33;;;8.83;;
24259;SDS011;12384;48.112;18.418;2023-02-01T08:38:46;8.73;;;8.13;;
24259;SDS011;12384;48.112;18.418;2023-02-01T08:41:16;9.50;;;8.80;;
24259;SDS011;12384;48.112;18.418;2023-02-01T08:43:47;9.10;;;8.60;;
24259;SDS011;12384;48.112;18.418;2023-02-01T08:46:16;9.20;;;8.70;;
24259;SDS011;12384;48.112;18.418;2023-02-01T08:48:45;9.13;;;8.57;;
24259;SDS011;12384;48.112;18.418;2023-02-01T08:51:15;9.20;;;8.70;;
24259;SDS011;12384;48.112;18.418;2023-02-01T08:53:45;9.83;;;9.23;;
24259;SDS011;12384;48.112;18.418;2023-02-01T08:56:15;9.53;;;8.83;;
24259;SDS011;12384;48.112;18.418;2023-02-01T08:58:44;9.80;;;9.20;;
24259;SDS011;12384;48.112;18.418;2023-02-01T09:01:15;9.43;;;8.83;;
24259;SDS011;12384;48.112;18.418;2023-02-01T09:03:44;9.47;;;8.87;;
24259;SDS011;12384;48.112;18.418;2023-02-01T09:06:30;10.13;;;9.43;;
24259;SDS011;12384;48.112;18.418;2023-02-01T09:08:59;10.47;;;9.77;;
24259;SDS011;12384;48.112;18.418;2023-02-01T09:11:27;9.80;;;9.10;;
24259;SDS011;12384;48.112;18.418;2023-02-01T09:13:55;8.93;;;8.37;;
24259;SDS011;12384;48.112;18.418;2023-02-01T09:16:25;8.77;;;8.10;;
24259;SDS011;12384;48.112;18.418;2023-02-01T09:18:54;10.40;;;9.53;;
24259;SDS011;12384;48.112;18.418;2023-02-01T09:21:42;9.10;;;8.60;;
24259;SDS011;12384;48.112;18.418;2023-02-01T09:24:11;9.23;;;8.63;;
24259;SDS011;12384;48.112;18.418;2023-02-01T09:26:40;9.20;;;8.50;;
24259;SDS011;12384;48.112;18.418;2023-02-01T09:29:08;9.40;;;8.80;;
24259;SDS011;12384;48.112;18.418;2023-02-01T09:31:41;9.33;;;8.70;;
24259;SDS011;12384;48.112;18.418;2023-02-01T09:34:27;9.33;;;8.60;;
24259;SDS011;12384;48.112;18.418;2023-02-01T09:36:55;9.13;;;8.53;;
24259;SDS011;12384;48.112;18.418;2023-02-01T09:39:24;8.27;;;7.70;;
24259;SDS011;12384;48.112;18.418;2023-02-01T09:41:55;8.50;;;7.93;;
24259;SDS011;12384;48.112;18.418;2023-02-01T09:44:37;8.77;;;8.30;;
24259;SDS011;12384;48.112;18.418;2023-02-01T09:47:16;8.30;;;7.90;;
24259;SDS011;12384;48.112;18.418;2023-02-01T09:49:48;7.93;;;7.43;;
24259;SDS011;12384;48.112;18.418;2023-02-01T09:52:23;8.80;;;8.20;;
24259;SDS011;12384;48.112;18.418;2023-02-01T09:54:56;8.90;;;8.23;;
24259;SDS011;12384;48.112;18.418;2023-02-01T09:57:32;8.83;;;8.23;;
24259;SDS011;12384;48.112;18.418;2023-02-01T10:00:13;9.33;;;8.63;;
24259;SDS011;12384;48.112;18.418;2023-02-01T10:02:50;7.63;;;7.20;;
24259;SDS011;12384;48.112;18.418;2023-02-01T10:05:23;9.63;;;8.97;;
24259;SDS011;12384;48.112;18.418;2023-02-01T10:08:10;8.40;;;7.90;;
24259;SDS011;12384;48.112;18.418;2023-02-01T10:10:45;8.50;;;8.00;;
24259;SDS011;12384;48.112;18.418;2023-02-01T10:13:23;9.10;;;8.53;;
24259;SDS011;12384;48.112;18.418;2023-02-01T10:16:16;8.97;;;8.43;;
24259;SDS011;12384;48.112;18.418;2023-02-01T10:19:08;8.93;;;8.33;;
24259;SDS011;12384;48.112;18.418;2023-02-01T10:21:53;8.67;;;8.17;;
24259;SDS011;12384;48.112;18.418;2023-02-01T10:24:34;8.30;;;7.80;;
24259;SDS011;12384;48.112;18.418;2023-02-01T10:27:12;8.30;;;7.70;;
24259;SDS011;12384;48.112;18.418;2023-02-01T10:29:45;9.10;;;8.60;;
24259;SDS011;12384;48.112;18.418;2023-02-01T10:32:16;8.50;;;8.00;;
24259;SDS011;12384;48.112;18.418;2023-02-01T10:34:49;9.00;;;8.50;;
24259;SDS011;12384;48.112;18.418;2023-02-01T10:37:24;9.03;;;8.53;;
24259;SDS011;12384;48.112;18.418;2023-02-01T10:39:57;9.40;;;8.90;;
24259;SDS011;12384;48.112;18.418;2023-02-01T10:42:28;10.00;;;9.40;;
24259;SDS011;12384;48.112;18.418;2023-02-01T10:44:59;9.43;;;8.93;;
24259;SDS011;12384;48.112;18.418;2023-02-01T10:47:31;9.20;;;8.70;;
24259;SDS011;12384;48.112;18.418;2023-02-01T10:50:03;8.90;;;8.50;;
24259;SDS011;12384;48.112;18.418;2023-02-01T10:52:43;8.27;;;7.87;;
24259;SDS011;12384;48.112;18.418;2023-02-01T10:55:26;8.43;;;8.03;;
24259;SDS011;12384;48.112;18.418;2023-02-01T10:57:57;8.20;;;7.70;;
24259;SDS011;12384;48.112;18.418;2023-02-01T11:00:27;8.60;;;8.13;;
24259;SDS011;12384;48.112;18.418;2023-02-01T11:02:55;9.33;;;8.77;;
24259;SDS011;12384;48.112;18.418;2023-02-01T11:05:25;8.80;;;8.30;;
24259;SDS011;12384;48.112;18.418;2023-02-01T11:07:54;9.63;;;9.03;;
24259;SDS011;12384;48.112;18.418;2023-02-01T11:10:34;10.20;;;9.60;;
24259;SDS011;12384;48.112;18.418;2023-02-01T11:13:04;10.30;;;9.60;;
24259;SDS011;12384;48.112;18.418;2023-02-01T11:15:33;10.57;;;9.77;;
24259;SDS011;12384;48.112;18.418;2023-02-01T11:18:12;10.30;;;9.70;;
24259;SDS011;12384;48.112;18.418;2023-02-01T11:20:46;9.83;;;9.23;;
24259;SDS011;12384;48.112;18.418;2023-02-01T11:23:19;10.03;;;9.43;;
24259;SDS011;12384;48.112;18.418;2023-02-01T11:25:51;10.50;;;9.80;;
24259;SDS011;12384;48.112;18.418;2023-02-01T11:28:21;10.17;;;9.57;;
24259;SDS011;12384;48.112;18.418;2023-02-01T11:30:53;10.93;;;10.00;;
24259;SDS011;12384;48.112;18.418;2023-02-01T11:33:25;10.40;;;9.67;;
24259;SDS011;12384;48.112;18.418;2023-02-01T11:35:58;10.30;;;9.70;;
24259;SDS011;12384;48.112;18.418;2023-02-01T11:38:29;10.37;;;9.67;;
24259;SDS011;12384;48.112;18.418;2023-02-01T11:41:11;10.00;;;9.40;;
24259;SDS011;12384;48.112;18.418;2023-02-01T11:43:50;10.23;;;9.63;;
24259;SDS011;12384;48.112;18.418;2023-02-01T11:46:22;11.00;;;10.20;;
24259;SDS011;12384;48.112;18.418;2023-02-01T11:48:53;9.97;;;9.30;;
24259;SDS011;12384;48.112;18.418;2023-02-01T11:51:32;10.60;;;9.90;;
24259;SDS011;12384;48.112;18.418;2023-02-01T11:54:16;10.63;;;9.93;;
24259;SDS011;12384;48.112;18.418;2023-02-01T11:57:07;10.80;;;10.10;;
24259;SDS011;12384;48.112;18.418;2023-02-01T12:00:00;10.77;;;10.07;;
24259;SDS011;12384;48.112;18.418;2023-02-01T12:02:51;9.90;;;9.30;;
24259;SDS011;12384;48.112;18.418;2023-02-01T12:05:41;11.30;;;10.47;;
24259;SDS011;12384;48.112;18.418;2023-02-01T12:11:24;11.77;;;10.87;;
24259;SDS011;12384;48.112;18.418;2023-02-01T12:14:05;11.37;;;10.67;;
24259;SDS011;12384;48.112;18.418;2023-02-01T12:17:10;12.37;;;11.57;;
24259;SDS011;12384;48.112;18.418;2023-02-01T12:20:00;11.27;;;10.47;;
24259;SDS011;12384;48.112;18.418;2023-02-01T12:22:42;11.53;;;10.77;;
24259;SDS011;12384;48.112;18.418;2023-02-01T12:25:36;12.50;;;11.50;;
24259;SDS011;12384;48.112;18.418;2023-02-01T12:28:22;12.37;;;11.47;;
24259;SDS011;12384;48.112;18.418;2023-02-01T12:31:15;12.47;;;11.63;;
24259;SDS011;12384;48.112;18.418;2023-02-01T12:34:18;13.07;;;12.17;;
24259;SDS011;12384;48.112;18.418;2023-02-01T12:37:00;12.03;;;11.17;;
24259;SDS011;12384;48.112;18.418;2023-02-01T12:39:38;10.77;;;10.07;;
24259;SDS011;12384;48.112;18.418;2023-02-01T12:42:11;9.93;;;9.13;;
24259;SDS011;12384;48.112;18.418;2023-02-01T12:44:45;9.27;;;8.73;;
24259;SDS011;12384;48.112;18.418;2023-02-01T12:47:20;9.50;;;8.90;;
24259;SDS011;12384;48.112;18.418;2023-02-01T12:49:53;9.60;;;9.00;;
24259;SDS011;12384;48.112;18.418;2023-02-01T12:52:27;9.30;;;8.60;;
24259;SDS011;12384;48.112;18.418;2023-02-01T12:55:03;8.60;;;8.10;;
24259;SDS011;12384;48.112;18.418;2023-02-01T12:57:40;8.90;;;8.37;;
24259;SDS011;12384;48.112;18.418;2023-02-01T13:00:14;9.20;;;8.60;;
24259;SDS011;12384;48.112;18.418;2023-02-01T13:02:51;9.67;;;9.07;;
24259;SDS011;12384;48.112;18.418;2023-02-01T13:05:27;10.77;;;9.93;;
24259;SDS011;12384;48.112;18.418;2023-02-01T13:08:02;9.63;;;9.13;;
24259;SDS011;12384;48.112;18.418;2023-02-01T13:10:36;9.73;;;9.10;;
24259;SDS011;12384;48.112;18.418;2023-02-01T13:13:11;10.17;;;9.57;;
24259;SDS011;12384;48.112;18.418;2023-02-01T13:15:46;10.17;;;9.57;;
24259;SDS011;12384;48.112;18.418;2023-02-01T13:18:21;9.90;;;9.30;;
24259;SDS011;12384;48.112;18.418;2023-02-01T13:20:55;9.50;;;9.00;;
24259;SDS011;12384;48.112;18.418;2023-02-01T13:23:36;9.73;;;9.20;;
24259;SDS011;12384;48.112;18.418;2023-02-01T13:26:07;9.60;;;9.10;;
24259;SDS011;12384;48.112;18.418;2023-02-01T13:28:39;9.50;;;9.00;;
24259;SDS011;12384;48.112;18.418;2023-02-01T13:31:25;9.40;;;8.90;;
24259;SDS011;12384;48.112;18.418;2023-02-01T13:34:33;10.00;;;9.40;;
24259;SDS011;12384;48.112;18.418;2023-02-01T13:37:24;10.37;;;9.80;;
24259;SDS011;12384;48.112;18.418;2023-02-01T13:40:16;9.73;;;9.20;;
24259;SDS011;12384;48.112;18.418;2023-02-01T13:42:52;9.93;;;9.30;;
24259;SDS011;12384;48.112;18.418;2023-02-01T13:45:25;8.80;;;8.30;;
24259;SDS011;12384;48.112;18.418;2023-02-01T13:47:57;7.97;;;7.53;;
24259;SDS011;12384;48.112;18.418;2023-02-01T13:50:29;8.03;;;7.50;;
24259;SDS011;12384;48.112;18.418;2023-02-01T13:53:01;8.20;;;7.60;;
24259;SDS011;12384;48.112;18.418;2023-02-01T13:55:33;8.70;;;8.10;;
24259;SDS011;12384;48.112;18.418;2023-02-01T13:58:18;8.13;;;7.63;;
24259;SDS011;12384;48.112;18.418;2023-02-01T14:00:49;8.60;;;8.10;;
24259;SDS011;12384;48.112;18.418;2023-02-01T14:03:19;7.97;;;7.57;;
24259;SDS011;12384;48.112;18.418;2023-02-01T14:08:45;8.07;;;7.67;;
24259;SDS011;12384;48.112;18.418;2023-02-01T14:11:34;9.23;;;8.50;;
24259;SDS011;12384;48.112;18.418;2023-02-01T14:23:10;9.20;;;8.70;;
24259;SDS011;12384;48.112;18.418;2023-02-01T14:25:42;9.23;;;8.67;;
24259;SDS011;12384;48.112;18.418;2023-02-01T14:28:12;9.70;;;9.20;;
24259;SDS011;12384;48.112;18.418;2023-02-01T14:30:49;9.50;;;8.90;;
24259;SDS011;12384;48.112;18.418;2023-02-01T14:33:20;12.27;;;9.43;;
24259;SDS011;12384;48.112;18.418;2023-02-01T14:38:47;9.13;;;8.63;;
24259;SDS011;12384;48.112;18.418;2023-02-01T14:41:28;9.27;;;8.67;;
24259;SDS011;12384;48.112;18.418;2023-02-01T14:53:20;8.07;;;7.57;;
24259;SDS011;12384;48.112;18.418;2023-02-01T14:55:52;9.70;;;9.00;;
24259;SDS011;12384;48.112;18.418;2023-02-01T14:58:31;9.97;;;9.27;;
24259;SDS011;12384;48.112;18.418;2023-02-01T15:01:04;8.70;;;8.10;;
24259;SDS011;12384;48.112;18.418;2023-02-01T15:03:50;9.23;;;8.63;;
24259;SDS011;12384;48.112;18.418;2023-02-01T15:06:26;9.37;;;8.60;;
24259;SDS011;12384;48.112;18.418;2023-02-01T15:08:59;9.37;;;8.63;;
24259;SDS011;12384;48.112;18.418;2023-02-01T15:11:30;9.00;;;8.50;;
24259;SDS011;12384;48.112;18.418;2023-02-01T15:13:58;8.47;;;7.67;;
24259;SDS011;12384;48.112;18.418;2023-02-01T15:16:27;8.23;;;7.73;;
24259;SDS011;12384;48.112;18.418;2023-02-01T15:19:08;9.63;;;8.83;;
24259;SDS011;12384;48.112;18.418;2023-02-01T15:21:44;9.17;;;8.57;;
24259;SDS011;12384;48.112;18.418;2023-02-01T15:24:17;8.60;;;8.00;;
24259;SDS011;12384;48.112;18.418;2023-02-01T15:26:47;9.50;;;8.60;;
24259;SDS011;12384;48.112;18.418;2023-02-01T15:29:16;8.70;;;8.20;;
24259;SDS011;12384;48.112;18.418;2023-02-01T15:31:46;8.90;;;8.17;;
24259;SDS011;12384;48.112;18.418;2023-02-01T15:34:16;8.67;;;8.17;;
24259;SDS011;12384;48.112;18.418;2023-02-01T15:36:46;8.30;;;7.80;;
24259;SDS011;12384;48.112;18.418;2023-02-01T15:39:28;8.93;;;8.43;;
24259;SDS011;12384;48.112;18.418;2023-02-01T15:41:59;8.90;;;8.30;;